Redwood City, CA

2:25 PM PDT on October 01, 2014 (GMT -0700)
Centennial | Change Station
CLOSE
Current Station
Personal Weather Station
Location: Redwood City, CA
Elevation: 10 ft
Nearby Weather Stations
Active Advisory: Heat Advisory

Elev 10 ft 37.50 °N, 122.24 °W | Updated 10 minutes ago

Clear
Clear
84.3 °F
Feels Like 82 °F
N
1.0
Wind Variable Wind from SSE
Gusts 9.0 mph

Today
High -- | Low -- °F
--% Chance of Precip.
Yesterday
High -- | Low -- °F
Precip. -- in
7:04 AM 6:51 PM
Waxing Crescent, 51% visible
Pressure 29.92 in
Visibility 10.0 miles
Clouds Few 2000 ft
Heat Index 82 °F
Dew Point 42 °F
Humidity 23%
Rainfall 0.00 in
Snow Depth 0 in , 0 in , 1 in
UV 6 out of 12
Pollen 3.60 out of 12
PM2.5 Good
Flu Activity Not available.
METAR KSQL 302047Z 34007KT 10SM FEW020 23/15 A2992

More Conditions Fewer Conditions

Pressure 29.92 in
Visibility 10.0 miles
Clouds Few 2000 ft
Heat Index 82 °F
Dew Point 42 °F
Humidity 23%
Rainfall 0.00 in
Snow Depth 0 in , 0 in , 1 in
UV 6 out of 12
Pollen 3.60 out of 12
PM2.5 Good
Flu Activity Not available.
METAR KSQL 302047Z 34007KT 10SM FEW020 23/15 A2992

More Conditions Fewer Conditions

10-Day Weather Forecast

Almanac

Astronomy

Oct. 01, 2014 Rise Set
Actual Time 7:04 AM PDT 6:51 PM PDT
Civil Twilight 6:38 AM PDT 7:17 PM PDT
Nautical Twilight 6:08 AM PDT 7:48 PM PDT
Astronomical Twilight 5:37 AM PDT 8:18 PM PDT
Moon 2:04 PM PDT No Moon Set
Length of Visible Light 12h 39m
Length of Day
11h 47m
Tomorrow will be 2m 23s shorter.
Waxing Crescent, 51% of the Moon is Illuminated
Today
Waxing Crescent
Oct 8
Full
Oct 15
Last Quarter
Oct 23
New
Oct 30
First Quarter

Today's Extremes

State Highs State Lows

Community

WunderPhotos

Upload Photos

1,758,058 photos uploaded!

WunderBlogs® & News

By Dr. Jeff Masters
Director of Meteorology, Weather Underground
By Kari Strenfel
Meteorologist, Weather Underground
By Christopher C. Burt
Weather Historian, Weather Underground
October 1, 2014
October 1, 2014
October 1, 2014

Nearby

Air Quality

  Air Quality AQ Index Pollutant
Yesterday Good
PM2.5
Yesterday Good
OZONE
Current Good
PM2.5
Wednesday Good
PM2.5
Thursday Moderate
OZONE
Friday Moderate
NO2
Saturday Moderate
PM2.5
Sunday Moderate
PM2.5
Monday Moderate
PM2.5

Snow Depth

Station Depth Elevation
Burnside Lake 0 in 8139 ft
Rubicon #2 0 in 7500 ft
Leavitt Meadows 0 in 7200 ft
Leavitt Lake 1 in 9400 ft
CSS Lab 3 in 6900 ft

Earthquake Activity

City Distance Mag. Time & Date
South Dos Palos, California 95 miles 3.0 11:17 AM PDT
2014-10-01
Shandon, California 156 miles 2.9 5:34 PM PDT
2014-09-30
East Foothills, California 23 miles 2.6 3:34 PM PDT
2014-09-30
South Dos Palos, California 95 miles 2.7 3:08 PM PDT
2014-09-30
Minimum magnitude displayed is 2.5.

Coastal Water Temperatures

Place Temperature
No Stations Reporting

Nearby Weather Stations